Windsor Park, Mississippi
Current Conditions -  °F | °C
As of 8:58 PM on Sunday 21 Dec 2014 (Local Time) from KBIX Reporting Station
Overcast Overcast  
Wind Chill: 56°   Ceiling: 700
Heat Index: 56°   Visibility: 8mi
Dew Point: 55°   Wind: 7mph
Humidity: 97%   Direction: 70°ENE
Pressure: 29.98"   Gusts: NA
Location:  30.418°N, 88.7558°W
Report Text: KBIX 220258Z AUTO 07006KT 8SM R03/5500FT OVC007 13/13 A2998 RMK AO2 SLP155 T01340129 58004
Loading
Personal Weather Stations






























Interactive Weather Map New forecast layout! Learn more

10-Day Weather Forecast

Advertisements
Track Severe Weather on mobile